KFKS

Frankfort Dow Memorial Field Airport

Frankfort, Michigan, USA
METAR KFKS 230955Z AUTO 33011G17KT 300V360 10SM SCT026 OVC035 07/02 A3008 RMK AO2 T00730022
Observed Flight Rules
Oct-23 @ 09:55 UTC (11 minutes ago) Visual Flight Rules
Wind Visibility Clouds
330° at 11 knots
 Gusting to 17 knots
10 miles
  • Scattered at 2,600' AGL
  • Overcast at 3,500' AGL
Temperatures Readings
Current 7°C / 45°F
Dewpoint 2°C / 36°F
Humidity 71%
Altimeter 30.08" Hg
Pressure 1019 hPa
Elevation 193
METAR KFKS 230955Z AUTO 33011G17KT 300V360 10SM SCT026 OVC035 07/02 A3008 RMK AO2 T00730022
Observed Flight Rules
Oct-23 @ 09:55 UTC
(11 minutes ago)
VFR
Wind Visibility
330° at 11 knots
 Gusting to 17 knots
10 miles
Clouds
  • Scattered at 2,600' AGL
  • Overcast at 3,500' AGL
Temperature Dewpoint
7°C / 45°F 2°C / 36°F
Humidity Altimeter Pressure
71% 30.08" Hg 1019 hPa